createdAt,value
2018-07-11T00:01:20.424Z,98175.42
2018-07-11T00:03:54.784Z,98200.78
2018-07-11T00:06:25.195Z,98174.41
2018-07-11T00:08:53.924Z,98195.72
2018-07-11T00:11:22.460Z,98205.86
2018-07-11T00:13:52.691Z,98203.83
2018-07-11T00:16:21.208Z,98252.55
2018-07-11T00:18:49.707Z,98259.64
2018-07-11T00:21:18.210Z,98216.01
2018-07-11T00:23:49.477Z,98223.11
2018-07-11T00:26:18.017Z,98237.32
2018-07-11T00:28:46.534Z,98243.41
2018-07-11T00:31:16.149Z,98240.36
2018-07-11T00:33:44.658Z,98243.41
2018-07-11T00:36:13.187Z,98264.72
2018-07-11T00:38:41.742Z,98264.72
2018-07-11T00:41:10.314Z,98265.73
2018-07-11T00:43:38.853Z,98294.15
2018-07-11T00:46:08.165Z,98278.92
2018-07-11T00:48:36.721Z,98275.88
2018-07-11T00:51:05.527Z,98276.90
2018-07-11T00:53:37.601Z,98301.25
2018-07-11T00:56:06.168Z,98276.90
2018-07-11T00:58:45.578Z,98312.41
2018-07-11T01:01:15.614Z,98274.86
2018-07-11T01:03:55.961Z,98295.16
2018-07-11T01:06:25.194Z,98339.81
2018-07-11T01:08:58.134Z,98319.52
2018-07-11T01:11:29.641Z,98316.47
2018-07-11T01:13:58.164Z,98324.59
2018-07-11T01:16:26.689Z,98346.91
2018-07-11T01:19:00.616Z,98320.53
2018-07-11T01:21:29.693Z,98294.15
2018-07-11T01:24:00.689Z,98300.23
2018-07-11T01:26:34.258Z,98298.20
2018-07-11T01:29:02.896Z,98295.16
2018-07-11T01:31:31.496Z,98262.69
2018-07-11T01:34:00.554Z,98265.73
2018-07-11T01:36:29.501Z,98214.99
2018-07-11T01:38:59.877Z,98256.59
2018-07-11T01:41:28.634Z,98270.80
2018-07-11T01:43:57.170Z,98250.52
2018-07-11T01:46:43.921Z,98270.80
2018-07-11T01:49:12.553Z,98285.02
2018-07-11T01:52:51.040Z,98306.33
2018-07-11T01:55:20.699Z,98281.97
2018-07-11T01:57:50.074Z,98305.31
2018-07-11T02:00:21.281Z,98304.30
2018-07-11T02:02:50.156Z,98299.22
2018-07-11T02:05:18.672Z,98334.74
2018-07-11T02:07:50.373Z,98305.31
2018-07-11T02:10:19.135Z,98309.37
2018-07-11T02:12:48.113Z,98299.22
2018-07-11T02:15:17.018Z,98342.86
2018-07-11T02:17:46.157Z,98331.69
2018-07-11T02:20:16.208Z,98357.06
2018-07-11T02:22:45.881Z,98325.61
2018-07-11T02:25:15.721Z,98350.98
2018-07-11T02:27:44.318Z,98309.37
2018-07-11T02:30:12.823Z,98316.47
2018-07-11T02:32:41.766Z,98329.66
2018-07-11T02:35:10.294Z,98349.96
2018-07-11T02:37:38.778Z,98346.91
2018-07-11T02:40:07.312Z,98355.03
2018-07-11T02:42:35.985Z,98317.48
2018-07-11T02:45:04.555Z,98340.83
2018-07-11T02:47:38.441Z,98377.36
2018-07-11T02:50:07.068Z,98350.98
2018-07-11T02:52:35.940Z,98364.17
2018-07-11T02:55:04.490Z,98364.17
2018-07-11T02:57:33.073Z,98335.75
2018-07-11T03:00:01.557Z,98382.44
2018-07-11T03:02:30.119Z,98369.24
2018-07-11T03:04:58.881Z,98394.61
2018-07-11T03:07:27.419Z,98378.37
2018-07-11T03:09:55.921Z,98392.59
2018-07-11T03:12:24.444Z,98403.75
2018-07-11T03:14:53.298Z,98402.73
2018-07-11T03:17:21.804Z,98444.34
2018-07-11T03:19:50.325Z,98478.84
2018-07-11T03:22:19.174Z,98450.43
2018-07-11T03:24:47.662Z,98447.39
2018-07-11T03:27:16.170Z,98436.22
2018-07-11T03:29:44.682Z,98443.33
2018-07-11T03:32:13.180Z,98464.64
2018-07-11T03:34:41.860Z,98489.00
2018-07-11T03:37:10.386Z,98428.10
2018-07-11T03:39:39.967Z,98436.22
2018-07-11T03:42:08.522Z,98421.00
2018-07-11T03:44:37.061Z,98476.81
2018-07-11T03:47:05.690Z,98484.94
2018-07-11T03:49:34.257Z,98458.55
2018-07-11T03:52:02.879Z,98406.80
2018-07-11T03:54:31.378Z,98406.80
2018-07-11T03:56:59.936Z,98395.63
2018-07-11T03:59:28.400Z,98411.86
2018-07-11T04:01:56.897Z,98386.49
2018-07-11T04:04:25.437Z,98388.52
2018-07-11T04:06:53.939Z,98377.36
2018-07-11T04:09:22.405Z,98360.11
2018-07-11T04:11:50.908Z,98317.48
2018-07-11T04:14:19.365Z,98321.55
2018-07-11T04:16:48.020Z,98322.56
2018-07-11T04:19:16.582Z,98272.84
2018-07-11T04:21:45.091Z,98295.16
2018-07-11T04:24:13.566Z,98239.34
2018-07-11T04:26:42.102Z,98235.29
2018-07-11T04:29:10.637Z,98223.11
2018-07-11T04:31:39.142Z,98207.89
2018-07-11T04:34:07.917Z,98203.83
2018-07-11T04:36:36.465Z,98162.23
2018-07-11T04:39:05.530Z,98126.71
2018-07-11T04:41:34.047Z,98098.30
2018-07-11T04:44:02.585Z,98072.93
2018-07-11T04:46:31.105Z,98032.34
2018-07-11T04:48:59.790Z,98006.97
2018-07-11T04:51:28.601Z,98039.45
2018-07-11T04:53:57.723Z,98048.58
2018-07-11T04:56:27.215Z,98047.56
2018-07-11T04:58:55.758Z,98017.12
2018-07-11T05:01:24.225Z,98043.50
2018-07-11T05:03:52.764Z,98012.05
2018-07-11T05:06:21.349Z,97980.59
2018-07-11T05:08:49.859Z,97959.28
2018-07-11T05:11:18.403Z,97979.58
2018-07-11T05:13:47.321Z,97895.36
2018-07-11T05:16:15.844Z,97908.55
2018-07-11T05:18:44.720Z,97851.72
2018-07-11T05:21:13.230Z,97813.17
2018-07-11T05:23:41.723Z,97869.99
2018-07-11T05:26:10.621Z,97882.17
2018-07-11T05:28:39.092Z,97915.65
2018-07-11T05:31:07.593Z,97875.06
2018-07-11T05:33:36.518Z,97883.18
2018-07-11T05:36:05.026Z,97914.64
2018-07-11T05:38:33.550Z,97888.25
2018-07-11T05:41:02.409Z,97884.20
2018-07-11T05:43:30.879Z,97890.28
2018-07-11T05:45:59.371Z,97913.63
2018-07-11T05:48:27.874Z,97878.11
2018-07-11T05:50:56.389Z,97916.66
2018-07-11T05:53:24.901Z,97875.06
2018-07-11T05:55:53.367Z,97952.17
2018-07-11T05:58:22.180Z,97871.00
2018-07-11T06:00:50.647Z,97839.55
2018-07-11T06:03:19.226Z,97843.61
2018-07-11T06:05:47.742Z,97841.58
2018-07-11T06:08:16.265Z,97821.28
2018-07-11T06:10:44.729Z,97817.23
2018-07-11T06:13:13.246Z,97779.69
2018-07-11T06:15:42.011Z,97819.26
2018-07-11T06:18:10.514Z,97841.58
2018-07-11T06:20:39.366Z,97842.59
2018-07-11T06:23:07.822Z,97826.36
2018-07-11T06:25:36.297Z,97832.45
2018-07-11T06:28:04.831Z,97882.17
2018-07-11T06:30:33.444Z,97886.23
2018-07-11T06:33:01.960Z,97949.13
2018-07-11T06:35:30.439Z,97984.65
2018-07-11T06:37:58.982Z,97936.95
2018-07-11T06:40:27.441Z,97930.88
2018-07-11T06:42:55.950Z,97940.00
2018-07-11T06:45:24.474Z,97931.88
2018-07-11T06:47:53.037Z,97866.95
2018-07-11T06:50:21.538Z,97792.88
2018-07-11T06:52:50.049Z,97796.94
2018-07-11T06:55:18.541Z,97744.17
2018-07-11T06:57:47.018Z,97672.14
2018-07-11T07:00:15.513Z,97623.44
2018-07-11T07:02:44.026Z,97597.05
2018-07-11T07:05:12.506Z,97490.52
2018-07-11T07:07:40.990Z,97461.10
2018-07-11T07:10:09.498Z,97337.33
2018-07-11T07:12:38.095Z,97269.36
2018-07-11T07:15:06.967Z,97315.01
2018-07-11T07:17:35.436Z,97329.21
2018-07-11T07:20:03.986Z,97303.84
2018-07-11T07:22:32.526Z,97355.59
2018-07-11T07:25:02.034Z,97299.80
2018-07-11T07:27:30.569Z,97300.80
2018-07-11T07:29:59.040Z,97332.25
2018-07-11T07:32:27.540Z,97341.39
2018-07-11T07:34:56.155Z,97372.84
2018-07-11T07:37:24.673Z,97374.86
2018-07-11T07:39:53.164Z,97345.45
2018-07-11T07:42:21.698Z,97360.66
2018-07-11T07:44:50.224Z,97314.00
2018-07-11T07:47:24.171Z,97270.38
2018-07-11T07:49:52.717Z,97301.82
2018-07-11T07:52:21.267Z,97349.50
2018-07-11T07:54:49.778Z,97210.52
2018-07-11T07:57:18.329Z,97236.89
2018-07-11T07:59:47.165Z,97085.73
2018-07-11T08:02:15.754Z,97124.29
2018-07-11T08:04:45.833Z,97040.09
2018-07-11T08:07:14.334Z,97025.89
2018-07-11T08:09:42.846Z,97127.33
2018-07-11T08:12:11.450Z,97035.02
2018-07-11T08:14:39.918Z,97022.84
2018-07-11T08:17:08.522Z,96954.88
2018-07-11T08:19:37.025Z,96994.44
2018-07-11T08:22:16.754Z,97011.69
2018-07-11T08:24:56.441Z,97088.78
2018-07-11T08:27:37.058Z,97135.45
2018-07-11T08:30:27.580Z,97166.89
2018-07-11T08:34:07.713Z,97207.48
2018-07-11T08:36:49.126Z,97195.30
2018-07-11T08:42:03.684Z,97269.36
2018-07-11T08:45:05.130Z,97201.39
2018-07-11T08:47:49.069Z,97179.07
2018-07-11T08:52:42.574Z,97190.23
2018-07-11T08:55:25.222Z,97267.33
2018-07-11T08:58:04.904Z,97258.20
2018-07-11T09:00:44.770Z,97240.95
2018-07-11T09:07:36.957Z,97307.91
2018-07-11T09:10:14.597Z,97221.67
2018-07-11T09:14:57.981Z,97177.04
2018-07-11T09:19:45.677Z,96951.83
2018-07-11T09:22:25.281Z,96726.64
2018-07-11T09:24:53.796Z,96870.69
2018-07-11T09:27:22.286Z,96817.94
2018-07-11T09:29:50.821Z,96606.95
2018-07-11T09:32:19.676Z,96678.97
2018-07-11T09:34:48.182Z,96843.30
2018-07-11T09:37:16.645Z,97000.53
2018-07-11T09:39:45.181Z,96881.84
2018-07-11T09:42:13.707Z,96889.95
2018-07-11T09:44:42.221Z,96937.63
2018-07-11T09:47:16.005Z,96885.90
2018-07-11T09:49:44.838Z,96700.27
2018-07-11T09:52:13.717Z,96743.89
2018-07-11T09:54:42.262Z,96895.03
2018-07-11T09:57:10.832Z,96707.38
2018-07-11T09:59:39.344Z,96607.97
2018-07-11T10:02:07.869Z,96634.34
2018-07-11T10:04:36.428Z,96630.28
2018-07-11T10:07:05.326Z,96775.33
2018-07-11T10:09:33.998Z,96718.53
2018-07-11T10:12:02.671Z,96596.81
2018-07-11T10:14:30.996Z,96566.38
2018-07-11T10:16:59.562Z,96455.83
2018-07-11T10:19:28.101Z,96487.27
2018-07-11T10:21:56.614Z,96514.66
2018-07-11T10:24:25.139Z,96821.99
2018-07-11T10:26:53.892Z,96857.50
2018-07-11T10:29:22.417Z,96837.20
2018-07-11T10:31:51.061Z,96910.25
2018-07-11T10:34:19.541Z,96894.02
2018-07-11T10:36:48.174Z,96899.09
2018-07-11T10:39:16.674Z,96900.10
2018-07-11T10:41:45.186Z,96866.63
2018-07-11T10:44:13.702Z,96744.91
2018-07-11T10:46:42.229Z,96640.42
2018-07-11T10:49:10.775Z,96648.55
2018-07-11T10:51:39.258Z,96652.59
2018-07-11T10:54:08.218Z,96762.15
2018-07-11T10:56:36.850Z,96743.89
2018-07-11T10:59:05.410Z,96646.52
2018-07-11T11:01:33.975Z,96622.17
2018-07-11T11:04:02.499Z,96575.52
2018-07-11T11:06:31.010Z,96556.23
2018-07-11T11:08:59.538Z,96551.17
2018-07-11T11:11:28.440Z,96530.89
2018-07-11T11:13:56.949Z,96539.00
2018-07-11T11:16:25.445Z,96430.47
2018-07-11T11:18:54.338Z,96348.32
2018-07-11T11:21:22.886Z,96411.20
2018-07-11T11:23:51.406Z,96472.05
2018-07-11T11:26:19.913Z,96494.37
2018-07-11T11:28:48.418Z,96508.57
2018-07-11T11:31:16.930Z,96595.80
2018-07-11T11:33:45.416Z,96540.02
2018-07-11T11:36:13.957Z,96493.36
2018-07-11T11:38:42.449Z,96416.27
2018-07-11T11:41:11.069Z,96359.47
2018-07-11T11:43:39.762Z,96334.13
2018-07-11T11:46:08.265Z,96402.07
2018-07-11T11:48:36.811Z,96431.48
2018-07-11T11:51:05.369Z,96536.97
2018-07-11T11:53:33.850Z,96476.11
2018-07-11T11:56:02.386Z,96535.95
2018-07-11T11:58:30.925Z,96426.41
2018-07-11T12:00:59.402Z,96492.34
2018-07-11T12:03:27.909Z,96242.84
2018-07-11T12:05:56.393Z,96180.98
2018-07-11T12:08:24.889Z,96235.74
2018-07-11T12:10:53.454Z,96330.06
2018-07-11T12:13:21.917Z,96316.88
2018-07-11T12:15:50.401Z,96392.95
2018-07-11T12:18:18.888Z,96367.59
2018-07-11T12:20:47.442Z,96437.57
2018-07-11T12:23:16.057Z,96482.20
2018-07-11T12:26:10.153Z,96444.67
2018-07-11T12:28:38.653Z,96510.59
2018-07-11T12:31:07.255Z,96502.48
2018-07-11T12:33:36.103Z,96510.59
2018-07-11T12:36:04.778Z,96473.07
2018-07-11T12:38:34.047Z,96501.47
2018-07-11T12:41:02.637Z,96484.23
2018-07-11T12:43:31.327Z,96460.91
2018-07-11T12:45:59.821Z,96469.02
2018-07-11T12:48:33.965Z,96372.66
2018-07-11T12:51:02.781Z,96247.91
2018-07-11T12:53:31.282Z,96258.05
2018-07-11T12:56:00.090Z,96232.70
2018-07-11T12:58:28.640Z,96306.73
2018-07-11T13:00:57.197Z,96344.27
2018-07-11T13:03:26.266Z,96403.09
2018-07-11T13:05:54.744Z,96406.13
2018-07-11T13:08:23.292Z,96365.56
2018-07-11T13:10:52.033Z,96305.72
2018-07-11T13:13:21.038Z,96242.84
2018-07-11T13:15:50.065Z,96240.81
2018-07-11T13:18:18.560Z,96158.66
2018-07-11T13:20:47.079Z,96184.02
2018-07-11T13:23:16.056Z,96226.61
2018-07-11T13:25:44.581Z,96257.04
2018-07-11T13:28:13.117Z,96271.23
2018-07-11T13:30:41.706Z,96299.64
2018-07-11T13:33:10.239Z,96352.38
2018-07-11T13:35:38.778Z,96426.41
2018-07-11T13:38:09.051Z,96377.73
2018-07-11T13:40:37.602Z,96395.98
2018-07-11T13:43:06.077Z,96515.67
2018-07-11T13:45:34.618Z,96550.16
2018-07-11T13:48:03.913Z,96577.55
2018-07-11T13:50:34.586Z,96633.33
2018-07-11T13:53:03.405Z,96562.33
2018-07-11T13:55:32.684Z,96607.97
2018-07-11T13:58:02.450Z,96693.17
2018-07-11T14:00:31.873Z,96611.02
2018-07-11T14:03:00.421Z,96610.00
2018-07-11T14:05:28.910Z,96559.28
2018-07-11T14:07:57.500Z,96502.48
2018-07-11T14:10:25.986Z,96514.66
2018-07-11T14:12:54.464Z,96475.10
2018-07-11T14:15:22.935Z,96461.91
2018-07-11T14:17:51.400Z,96489.30
2018-07-11T14:20:19.939Z,96550.16
2018-07-11T14:22:49.018Z,96560.30
2018-07-11T14:25:18.239Z,96562.33
2018-07-11T14:27:48.204Z,96599.86
2018-07-11T14:30:16.765Z,96601.89
2018-07-11T14:32:50.767Z,96567.40
2018-07-11T14:35:19.708Z,96570.44
2018-07-11T14:37:49.413Z,96536.97
2018-07-11T14:40:18.103Z,96548.13
2018-07-11T14:42:46.921Z,96479.16
2018-07-11T14:45:16.159Z,96537.98
2018-07-11T14:47:50.104Z,96598.84
2018-07-11T14:50:18.946Z,96544.07
2018-07-11T14:52:47.748Z,96518.72
2018-07-11T14:55:16.383Z,96428.44
2018-07-11T14:57:44.922Z,96471.04
2018-07-11T15:00:13.490Z,96359.47
2018-07-11T15:02:42.012Z,96353.39
2018-07-11T15:05:10.590Z,96291.52
2018-07-11T15:07:39.112Z,96306.73
2018-07-11T15:10:07.967Z,96326.00
2018-07-11T15:12:36.477Z,96316.88
2018-07-11T15:15:05.087Z,96388.89
2018-07-11T15:17:33.842Z,96386.86
2018-07-11T15:20:02.473Z,96442.64
2018-07-11T15:22:31.033Z,96470.03
2018-07-11T15:24:59.587Z,96406.13
2018-07-11T15:27:28.129Z,96446.70
2018-07-11T15:29:57.092Z,96437.57
2018-07-11T15:32:25.621Z,96509.58
2018-07-11T15:34:54.278Z,96517.70
2018-07-11T15:37:22.851Z,96541.03
2018-07-11T15:39:52.260Z,96540.02
2018-07-11T15:42:21.140Z,96552.19
2018-07-11T15:44:50.661Z,96594.78
2018-07-11T15:47:21.248Z,96533.92
2018-07-11T15:49:51.742Z,96547.11
2018-07-11T15:52:22.089Z,96489.30
2018-07-11T15:54:50.642Z,96432.50
2018-07-11T15:57:25.958Z,96452.78
2018-07-11T16:00:01.334Z,96494.37
2018-07-11T16:02:30.754Z,96490.31
2018-07-11T16:04:59.785Z,96421.34
2018-07-11T16:07:29.597Z,96416.27
2018-07-11T16:09:59.412Z,96383.81
2018-07-11T16:12:27.915Z,96409.17
2018-07-11T16:14:57.224Z,96372.66
2018-07-11T16:17:25.762Z,96335.14
2018-07-11T16:19:54.641Z,96332.09
2018-07-11T16:22:23.712Z,96343.25
2018-07-11T16:24:52.241Z,96265.16
2018-07-11T16:27:21.204Z,96173.88
2018-07-11T16:29:49.990Z,96091.73
2018-07-11T16:32:18.545Z,96291.52
2018-07-11T16:34:47.036Z,96292.54
2018-07-11T16:37:15.569Z,96399.03
2018-07-11T16:39:44.378Z,96342.23
2018-07-11T16:42:12.922Z,96398.02
2018-07-11T16:44:41.495Z,96463.94
2018-07-11T16:47:10.033Z,96498.42
2018-07-11T16:49:41.205Z,96545.09
2018-07-11T16:52:09.991Z,96554.21
2018-07-11T16:54:38.615Z,96531.90
2018-07-11T16:57:08.542Z,96535.95
2018-07-11T17:00:10.711Z,96502.48
2018-07-11T17:02:42.437Z,96387.87
2018-07-11T17:05:11.856Z,96401.06
2018-07-11T17:07:59.881Z,96490.31
2018-07-11T17:10:30.718Z,96515.67
2018-07-11T17:13:13.213Z,96489.30
2018-07-11T17:15:46.302Z,96511.61
2018-07-11T17:18:34.061Z,96522.77
2018-07-11T17:21:07.286Z,96591.74
2018-07-11T17:23:36.248Z,96582.61
2018-07-11T17:26:05.290Z,96581.59
2018-07-11T17:28:33.969Z,96593.77
2018-07-11T17:31:02.819Z,96555.23
2018-07-11T17:33:31.575Z,96593.77
2018-07-11T17:36:00.312Z,96646.52
2018-07-11T17:38:31.342Z,96673.91
2018-07-11T17:41:02.168Z,96704.33
2018-07-11T17:43:37.400Z,96660.72
2018-07-11T17:46:07.399Z,96683.03
2018-07-11T17:48:44.460Z,96731.72
2018-07-11T17:51:26.141Z,96647.53
2018-07-11T17:53:56.592Z,96643.47
2018-07-11T17:56:34.839Z,96659.70
2018-07-11T17:59:03.444Z,96714.47
2018-07-11T18:01:40.570Z,96670.86
2018-07-11T18:04:35.255Z,96676.94
2018-07-11T18:07:11.997Z,96700.27
2018-07-11T18:09:50.500Z,96710.41
2018-07-11T18:12:27.405Z,96707.38
2018-07-11T18:15:04.645Z,96722.59
2018-07-11T18:17:47.190Z,96725.63
2018-07-11T18:20:22.236Z,96728.67
2018-07-11T18:22:58.208Z,96752.00
2018-07-11T18:25:34.893Z,96721.58
2018-07-11T18:28:11.386Z,96737.80
2018-07-11T18:30:51.109Z,96727.66
2018-07-11T18:33:31.652Z,96707.38
2018-07-11T18:36:11.460Z,96710.41
2018-07-11T18:40:58.030Z,96704.33
2018-07-11T18:43:35.105Z,96693.17
2018-07-11T18:46:44.073Z,96688.10
2018-07-11T18:49:20.813Z,96722.59
2018-07-11T18:52:31.236Z,96678.97
2018-07-11T18:55:36.984Z,96637.38
2018-07-11T18:58:45.104Z,96657.67
2018-07-11T19:01:19.780Z,96684.05
2018-07-11T19:04:27.450Z,96676.94
2018-07-11T19:07:09.433Z,96706.36
2018-07-11T19:09:49.938Z,96707.38
2018-07-11T19:12:38.599Z,96776.34
2018-07-11T19:15:14.745Z,96801.70
2018-07-11T19:18:02.913Z,96735.77
2018-07-11T19:20:34.336Z,96763.16
2018-07-11T19:24:12.761Z,96817.94
2018-07-11T19:26:55.922Z,96860.54
2018-07-11T19:30:34.129Z,96898.08
2018-07-11T19:33:09.729Z,96917.34
2018-07-11T19:37:53.485Z,96962.99
2018-07-11T19:41:33.227Z,96989.37
2018-07-11T19:46:20.849Z,97045.16
2018-07-11T19:49:00.669Z,97053.28
2018-07-11T19:51:40.271Z,97080.67
2018-07-11T19:54:18.161Z,97078.64
2018-07-11T19:56:48.667Z,97071.53
2018-07-11T19:59:18.150Z,97107.04
2018-07-11T20:01:47.026Z,97121.24
2018-07-11T20:04:16.039Z,97111.10
2018-07-11T20:06:44.830Z,97149.66
2018-07-11T20:09:13.559Z,97189.21
2018-07-11T20:11:42.104Z,97170.95
2018-07-11T20:14:10.773Z,97180.08
2018-07-11T20:16:39.311Z,97206.46
2018-07-11T20:19:07.864Z,97224.72
2018-07-11T20:21:36.417Z,97252.11
2018-07-11T20:24:04.897Z,97284.58
2018-07-11T20:26:33.763Z,97318.05
2018-07-11T20:29:02.289Z,97326.17
2018-07-11T20:31:30.830Z,97318.05
2018-07-11T20:33:59.345Z,97336.31
2018-07-11T20:36:27.940Z,97359.65
2018-07-11T20:38:57.232Z,97375.88
2018-07-11T20:41:25.727Z,97393.13
2018-07-11T20:43:54.363Z,97361.68
2018-07-11T20:46:23.191Z,97366.75
2018-07-11T20:48:51.944Z,97370.81
2018-07-11T20:51:20.784Z,97371.82
2018-07-11T20:53:49.438Z,97440.81
2018-07-11T20:56:18.187Z,97415.45
2018-07-11T20:58:58.266Z,97415.45
2018-07-11T21:01:38.251Z,97402.26
2018-07-11T21:07:21.090Z,97429.65
2018-07-11T21:10:02.341Z,97461.10
2018-07-11T21:12:43.876Z,97500.67
2018-07-11T21:15:22.779Z,97454.00
2018-07-11T21:19:09.582Z,97490.52
2018-07-11T21:21:39.381Z,97503.72
2018-07-11T21:24:09.104Z,97519.95
2018-07-11T21:26:38.523Z,97540.23
2018-07-11T21:29:07.422Z,97511.83
2018-07-11T21:31:36.276Z,97519.95
2018-07-11T21:34:05.095Z,97556.47
2018-07-11T21:36:33.833Z,97561.55
2018-07-11T21:39:02.637Z,97586.91
2018-07-11T21:41:31.331Z,97574.73
2018-07-11T21:44:00.032Z,97562.56
2018-07-11T21:46:28.838Z,97609.23
2018-07-11T21:48:57.528Z,97598.06
2018-07-11T21:51:30.156Z,97621.41
2018-07-11T21:53:58.775Z,97628.50
2018-07-11T21:56:27.512Z,97646.77
2018-07-11T21:58:57.338Z,97648.80
2018-07-11T22:01:26.056Z,97679.23
2018-07-11T22:03:56.317Z,97695.47
2018-07-11T22:06:25.199Z,97667.06
2018-07-11T22:08:53.997Z,97688.37
2018-07-11T22:11:23.336Z,97687.36
2018-07-11T22:13:52.217Z,97687.36
2018-07-11T22:16:23.770Z,97700.55
2018-07-11T22:18:52.361Z,97707.64
2018-07-11T22:21:19.913Z,97694.45
2018-07-11T22:24:50.513Z,97705.62
2018-07-11T22:27:18.085Z,97744.17
2018-07-11T22:29:45.586Z,97746.20
2018-07-11T22:32:14.414Z,97746.20
2018-07-11T22:34:41.930Z,97728.95
2018-07-11T22:37:09.405Z,97734.03
2018-07-11T22:39:36.975Z,97744.17
2018-07-11T22:42:08.282Z,97744.17
2018-07-11T22:44:36.171Z,97733.02
2018-07-11T22:47:04.108Z,97749.25
2018-07-11T22:49:31.673Z,97782.73
2018-07-11T22:51:59.212Z,97777.66
2018-07-11T22:54:26.781Z,97804.03
2018-07-11T22:56:54.347Z,97791.86
2018-07-11T22:59:22.793Z,97792.88
2018-07-11T23:01:50.330Z,97840.56
2018-07-11T23:04:18.032Z,97873.03
2018-07-11T23:06:45.509Z,97853.75
2018-07-11T23:09:13.078Z,97838.53
2018-07-11T23:11:40.898Z,97876.08
2018-07-11T23:14:08.956Z,97856.80
2018-07-11T23:16:49.126Z,97868.98
2018-07-11T23:19:16.730Z,97855.78
2018-07-11T23:21:44.289Z,97869.99
2018-07-11T23:24:11.830Z,97854.77
2018-07-11T23:26:39.642Z,97921.73
2018-07-11T23:29:07.183Z,97899.41
2018-07-11T23:31:34.756Z,97888.25
2018-07-11T23:34:02.856Z,97924.78
2018-07-11T23:36:30.468Z,97887.23
2018-07-11T23:38:58.258Z,97914.64
2018-07-11T23:41:25.768Z,97884.20
2018-07-11T23:43:53.438Z,97904.48
2018-07-11T23:46:21.324Z,97954.21
2018-07-11T23:48:48.897Z,97921.73
2018-07-11T23:51:16.677Z,97908.55
2018-07-11T23:53:44.142Z,98005.95
2018-07-11T23:56:11.718Z,97941.02
2018-07-11T23:58:39.392Z,97959.28
